Time;durP1;ratioP1;P1;durP2;ratioP2;P2;SDS_P1;SDS_P2;PMS_P1;PMS_P2;Temp;Humidity;BMP_temperature;BMP_pressure;BME280_temperature;BME280_humidity;BME280_pressure;Samples;Min_cycle;Max_cycle;Signal;HPM_P1;HPM_P2
2021/01/29 00:00:56;;;;;;;8.67;6.07;;;;;;;;;;5092207;28;20195;-79
2021/01/29 00:03:29;;;;;;;8.80;6.35;;;;;;;;;;5092621;28;20465;-79
2021/01/29 00:06:04;;;;;;;7.63;6.53;;;;;;;;;;5089133;28;20204;-79
2021/01/29 00:08:36;;;;;;;12.90;9.70;;;;;;;;;;5088848;28;20208;-76
2021/01/29 00:11:09;;;;;;;11.13;9.02;;;;;;;;;;5090891;28;20445;-80
2021/01/29 00:13:43;;;;;;;10.70;7.10;;;;;;;;;;5092392;28;20228;-76
2021/01/29 00:16:16;;;;;;;16.25;9.70;;;;;;;;;;5090551;28;20457;-79
2021/01/29 00:18:48;;;;;;;11.00;9.25;;;;;;;;;;5088576;28;20341;-77
2021/01/29 00:21:21;;;;;;;10.57;8.10;;;;;;;;;;5090255;28;20232;-78
2021/01/29 00:23:54;;;;;;;12.50;7.53;;;;;;;;;;5091965;28;20564;-79
2021/01/29 00:26:27;;;;;;;10.25;6.90;;;;;;;;;;5091431;28;20201;-80
2021/01/29 00:29:01;;;;;;;10.70;7.05;;;;;;;;;;5088414;28;20295;-79
2021/01/29 00:31:33;;;;;;;8.87;6.47;;;;;;;;;;5090679;28;20256;-77
2021/01/29 00:34:06;;;;;;;11.77;6.85;;;;;;;;;;5092171;28;20502;-79
2021/01/29 00:36:39;;;;;;;11.45;6.70;;;;;;;;;;5092139;28;20252;-77
2021/01/29 00:39:12;;;;;;;11.30;6.47;;;;;;;;;;5091601;28;20221;-78
2021/01/29 00:41:40;;;;;;;15.67;6.73;;;;;;;;;;5092918;28;20223;-79
2021/01/29 00:44:13;;;;;;;11.40;6.50;;;;;;;;;;5094865;28;20428;-79
2021/01/29 00:46:46;;;;;;;11.20;7.67;;;;;;;;;;5095831;28;20203;-78
2021/01/29 00:49:19;;;;;;;8.35;6.88;;;;;;;;;;5094421;28;20440;-79
2021/01/29 00:51:51;;;;;;;18.77;8.68;;;;;;;;;;5091550;28;20211;-78
2021/01/29 00:54:28;;;;;;;10.57;6.67;;;;;;;;;;5094532;28;20226;-79
2021/01/29 00:57:01;;;;;;;12.07;6.70;;;;;;;;;;5095911;28;20423;-77
2021/01/29 00:59:34;;;;;;;13.23;7.03;;;;;;;;;;5095270;28;20463;-80
2021/01/29 01:02:07;;;;;;;16.23;6.73;;;;;;;;;;5090990;28;20477;-80
2021/01/29 01:07:13;;;;;;;14.05;7.03;;;;;;;;;;5083481;22;20499;-76
2021/01/29 01:09:40;;;;;;;16.02;6.30;;;;;;;;;;5036111;28;20201;-77
2021/01/29 01:12:07;;;;;;;9.05;6.35;;;;;;;;;;5039910;28;20200;-77
2021/01/29 01:14:35;;;;;;;8.45;6.70;;;;;;;;;;5022436;28;20229;-77
2021/01/29 01:17:02;;;;;;;10.25;6.28;;;;;;;;;;5015582;28;20570;-77
2021/01/29 01:19:29;;;;;;;11.57;6.00;;;;;;;;;;5014101;28;20213;-77
2021/01/29 01:21:55;;;;;;;9.83;5.00;;;;;;;;;;5013956;28;20901;-77
2021/01/29 01:24:22;;;;;;;12.25;5.85;;;;;;;;;;5018608;28;20480;-79
2021/01/29 01:26:49;;;;;;;8.70;5.95;;;;;;;;;;5015597;28;20283;-76
2021/01/29 01:29:16;;;;;;;14.95;6.45;;;;;;;;;;5016432;28;20557;-77
2021/01/29 01:31:43;;;;;;;10.88;5.65;;;;;;;;;;5015271;28;20199;-79
2021/01/29 01:34:10;;;;;;;10.63;4.70;;;;;;;;;;5019592;28;20646;-79
2021/01/29 01:36:37;;;;;;;11.18;4.75;;;;;;;;;;5016563;28;20466;-78
2021/01/29 01:39:04;;;;;;;12.75;5.07;;;;;;;;;;5013757;28;20210;-78
2021/01/29 01:41:31;;;;;;;11.13;4.90;;;;;;;;;;5013196;28;20222;-77
2021/01/29 01:43:59;;;;;;;10.23;4.03;;;;;;;;;;5013613;28;20545;-78
2021/01/29 01:46:26;;;;;;;7.88;4.60;;;;;;;;;;5003915;28;20327;-76
2021/01/29 01:48:56;;;;;;;12.60;4.22;;;;;;;;;;5015896;28;20207;-78
2021/01/29 01:51:27;;;;;;;9.93;4.53;;;;;;;;;;4997076;28;20201;-79
2021/01/29 01:53:55;;;;;;;12.52;4.78;;;;;;;;;;4997899;28;20482;-77
2021/01/29 01:56:24;;;;;;;10.40;5.05;;;;;;;;;;5001444;28;20226;-79
2021/01/29 01:58:53;;;;;;;12.23;5.90;;;;;;;;;;4999392;28;20696;-78
2021/01/29 02:01:20;;;;;;;11.23;5.17;;;;;;;;;;4995079;28;20442;-77
2021/01/29 02:03:47;;;;;;;8.90;5.00;;;;;;;;;;5012852;28;20454;-80
2021/01/29 02:06:16;;;;;;;11.67;4.97;;;;;;;;;;5013230;28;20531;-75
2021/01/29 02:08:43;;;;;;;9.25;4.40;;;;;;;;;;5011040;28;20464;-76
2021/01/29 02:11:11;;;;;;;12.03;5.60;;;;;;;;;;5015723;28;20187;-76
2021/01/29 02:13:38;;;;;;;12.27;4.47;;;;;;;;;;5015390;28;20482;-76
2021/01/29 02:16:08;;;;;;;11.48;4.10;;;;;;;;;;5014468;28;20484;-77
2021/01/29 02:18:41;;;;;;;7.95;4.20;;;;;;;;;;5018365;28;20206;-76
2021/01/29 02:21:23;;;;;;;7.97;4.20;;;;;;;;;;5021604;28;20277;-77
2021/01/29 02:24:09;;;;;;;10.87;5.07;;;;;;;;;;5017829;28;20452;-75
2021/01/29 02:26:50;;;;;;;10.07;4.20;;;;;;;;;;5032565;28;20473;-76
2021/01/29 02:29:31;;;;;;;11.73;4.50;;;;;;;;;;5032310;28;20794;-77
2021/01/29 02:32:10;;;;;;;9.97;4.37;;;;;;;;;;5014068;28;20451;-76
2021/01/29 02:34:52;;;;;;;16.40;5.90;;;;;;;;;;5014295;28;20491;-76
2021/01/29 02:37:37;;;;;;;9.70;4.57;;;;;;;;;;5014926;28;20511;-76
2021/01/29 02:40:10;;;;;;;6.50;3.80;;;;;;;;;;5016437;28;20445;-78
2021/01/29 02:42:43;;;;;;;6.97;4.10;;;;;;;;;;5017702;28;20205;-76
2021/01/29 02:45:16;;;;;;;5.50;4.05;;;;;;;;;;5011381;28;20466;-75
2021/01/29 02:47:46;;;;;;;8.43;4.47;;;;;;;;;;5012022;28;20199;-76
2021/01/29 02:50:18;;;;;;;7.00;4.25;;;;;;;;;;5011988;28;20533;-76
2021/01/29 02:52:53;;;;;;;6.93;3.90;;;;;;;;;;5003401;28;20199;-76
2021/01/29 02:55:23;;;;;;;11.67;4.00;;;;;;;;;;5026453;28;20499;-77
2021/01/29 02:57:55;;;;;;;11.03;4.03;;;;;;;;;;4997403;28;20448;-76
2021/01/29 03:00:24;;;;;;;8.23;3.70;;;;;;;;;;5014357;28;20452;-77
2021/01/29 03:02:53;;;;;;;5.30;3.17;;;;;;;;;;5015712;28;20503;-76
2021/01/29 03:05:21;;;;;;;11.03;3.60;;;;;;;;;;5017582;28;20460;-76
2021/01/29 03:07:51;;;;;;;9.73;3.67;;;;;;;;;;4972646;28;20457;-76
2021/01/29 03:10:22;;;;;;;6.50;3.60;;;;;;;;;;4971633;28;20443;-77
2021/01/29 03:12:52;;;;;;;5.13;3.43;;;;;;;;;;4972742;28;20474;-77
2021/01/29 03:15:22;;;;;;;4.25;2.78;;;;;;;;;;4982563;28;20809;-77
2021/01/29 03:17:53;;;;;;;5.83;3.07;;;;;;;;;;4975571;28;20288;-76
2021/01/29 03:20:25;;;;;;;7.63;2.73;;;;;;;;;;4974342;28;20453;-76
2021/01/29 03:22:54;;;;;;;8.35;3.10;;;;;;;;;;4974738;28;20455;-75
2021/01/29 03:25:23;;;;;;;5.43;2.90;;;;;;;;;;4976634;28;20208;-77
2021/01/29 03:27:53;;;;;;;5.43;3.03;;;;;;;;;;4978261;28;20645;-76
2021/01/29 03:30:23;;;;;;;4.33;2.43;;;;;;;;;;4971921;28;20231;-78
2021/01/29 03:32:51;;;;;;;5.53;2.88;;;;;;;;;;4971114;28;20443;-76
2021/01/29 03:35:20;;;;;;;5.67;2.90;;;;;;;;;;4972580;28;20280;-77
2021/01/29 03:37:51;;;;;;;5.57;3.27;;;;;;;;;;4981209;28;20462;-76
2021/01/29 03:40:17;;;;;;;6.50;3.60;;;;;;;;;;4994285;28;20453;-78
2021/01/29 03:42:48;;;;;;;9.63;3.60;;;;;;;;;;4977673;28;20948;-76
2021/01/29 03:45:17;;;;;;;6.63;3.05;;;;;;;;;;4974532;28;20472;-76
2021/01/29 03:47:51;;;;;;;7.90;3.25;;;;;;;;;;4977126;28;20283;-76
2021/01/29 03:50:20;;;;;;;4.90;3.93;;;;;;;;;;4980272;28;20203;-77
2021/01/29 03:52:50;;;;;;;7.50;4.27;;;;;;;;;;4990657;28;20458;-77
2021/01/29 03:55:20;;;;;;;8.07;4.60;;;;;;;;;;4991289;28;20490;-76
2021/01/29 03:57:52;;;;;;;7.37;4.00;;;;;;;;;;4992166;28;20446;-77
2021/01/29 04:00:24;;;;;;;6.13;3.60;;;;;;;;;;4992736;28;20465;-76
2021/01/29 04:02:56;;;;;;;9.50;4.00;;;;;;;;;;4974392;28;20447;-75
2021/01/29 04:05:24;;;;;;;7.90;4.20;;;;;;;;;;4973934;28;20472;-75
2021/01/29 04:07:52;;;;;;;6.10;3.50;;;;;;;;;;5013975;28;20442;-76
2021/01/29 04:10:20;;;;;;;9.57;4.10;;;;;;;;;;4997956;28;20446;-75
2021/01/29 04:12:49;;;;;;;8.80;4.22;;;;;;;;;;5019555;28;20205;-77
2021/01/29 04:15:18;;;;;;;10.17;4.20;;;;;;;;;;5033990;28;20754;-75
2021/01/29 04:17:50;;;;;;;8.05;4.05;;;;;;;;;;5034955;28;20543;-77
2021/01/29 04:20:21;;;;;;;5.88;3.30;;;;;;;;;;5034455;28;20661;-76
2021/01/29 04:22:50;;;;;;;5.80;3.90;;;;;;;;;;5036069;28;20240;-76
2021/01/29 04:25:20;;;;;;;5.20;2.80;;;;;;;;;;5007275;28;20505;-76
2021/01/29 04:27:49;;;;;;;7.15;3.30;;;;;;;;;;5017425;28;20593;-77
2021/01/29 04:30:18;;;;;;;6.05;3.22;;;;;;;;;;5017242;28;20206;-76
2021/01/29 04:32:47;;;;;;;4.97;3.60;;;;;;;;;;5002515;28;20187;-77
2021/01/29 04:35:16;;;;;;;5.80;3.57;;;;;;;;;;5019362;28;20543;-75
2021/01/29 04:37:45;;;;;;;4.77;3.50;;;;;;;;;;4996835;28;20476;-77
2021/01/29 04:40:21;;;;;;;5.17;3.20;;;;;;;;;;4997270;28;20456;-76
2021/01/29 04:42:58;;;;;;;7.20;3.40;;;;;;;;;;5015022;28;20433;-76
2021/01/29 04:45:35;;;;;;;5.43;3.60;;;;;;;;;;5022116;28;20973;-77
2021/01/29 04:48:07;;;;;;;7.97;3.10;;;;;;;;;;5016696;28;20456;-76
2021/01/29 04:50:40;;;;;;;4.57;3.35;;;;;;;;;;5016118;28;20854;-76
2021/01/29 04:53:21;;;;;;;4.50;3.10;;;;;;;;;;4999712;28;20289;-77
2021/01/29 04:56:00;;;;;;;5.33;3.70;;;;;;;;;;5019246;28;20489;-76
2021/01/29 04:58:29;;;;;;;5.03;2.73;;;;;;;;;;5027310;28;20441;-75
2021/01/29 05:01:07;;;;;;;3.73;2.87;;;;;;;;;;5033697;28;20544;-77
2021/01/29 05:03:44;;;;;;;6.83;3.53;;;;;;;;;;5016745;28;20471;-75
2021/01/29 05:06:18;;;;;;;6.37;2.80;;;;;;;;;;5033781;28;20526;-78
2021/01/29 05:09:03;;;;;;;4.30;3.00;;;;;;;;;;5016324;28;20489;-76
2021/01/29 05:11:40;;;;;;;5.00;3.27;;;;;;;;;;5016679;28;20919;-77
2021/01/29 05:14:15;;;;;;;3.87;3.47;;;;;;;;;;5016486;28;21072;-76
2021/01/29 05:16:50;;;;;;;6.83;3.23;;;;;;;;;;5017814;28;20475;-77
2021/01/29 05:19:25;;;;;;;5.00;3.10;;;;;;;;;;5020351;28;20529;-77
2021/01/29 05:22:02;;;;;;;8.73;3.40;;;;;;;;;;5032618;28;20455;-76
2021/01/29 05:24:43;;;;;;;4.77;3.20;;;;;;;;;;5033023;28;20461;-76
2021/01/29 05:27:19;;;;;;;3.90;3.23;;;;;;;;;;5032654;28;20552;-76
2021/01/29 05:29:53;;;;;;;5.20;3.50;;;;;;;;;;5033161;28;20547;-76
2021/01/29 05:32:29;;;;;;;7.30;3.87;;;;;;;;;;5015860;28;20454;-75
2021/01/29 05:35:10;;;;;;;4.30;3.40;;;;;;;;;;5015974;28;20516;-76
2021/01/29 05:37:52;;;;;;;6.50;3.50;;;;;;;;;;5000764;28;20924;-77
2021/01/29 05:40:33;;;;;;;3.40;3.10;;;;;;;;;;5018498;28;20441;-77
2021/01/29 05:43:10;;;;;;;7.27;3.60;;;;;;;;;;5023820;28;20438;-77
2021/01/29 05:45:52;;;;;;;3.40;2.90;;;;;;;;;;5033485;28;20547;-76
2021/01/29 05:48:32;;;;;;;7.03;2.90;;;;;;;;;;5033124;28;20804;-76
2021/01/29 05:51:14;;;;;;;2.83;2.63;;;;;;;;;;5032925;28;20540;-77
2021/01/29 05:53:56;;;;;;;3.87;2.77;;;;;;;;;;5000522;28;20442;-76
2021/01/29 05:56:28;;;;;;;3.97;3.07;;;;;;;;;;5015509;28;20467;-76
2021/01/29 05:59:08;;;;;;;3.07;2.53;;;;;;;;;;5015365;28;20486;-76
2021/01/29 06:01:45;;;;;;;3.00;2.37;;;;;;;;;;5017244;28;20499;-77
2021/01/29 06:04:26;;;;;;;2.67;2.17;;;;;;;;;;5019014;28;20798;-77
2021/01/29 06:06:58;;;;;;;1.77;1.67;;;;;;;;;;5012758;28;20483;-77
2021/01/29 06:09:39;;;;;;;4.00;1.90;;;;;;;;;;5012940;28;20451;-77
2021/01/29 06:12:08;;;;;;;4.80;1.60;;;;;;;;;;5013053;28;20441;-76
2021/01/29 06:14:50;;;;;;;1.13;1.03;;;;;;;;;;5024106;28;20494;-78
2021/01/29 06:17:29;;;;;;;1.50;1.30;;;;;;;;;;5034626;28;20478;-77
2021/01/29 06:20:11;;;;;;;1.63;1.03;;;;;;;;;;5034764;28;20536;-77
2021/01/29 06:22:52;;;;;;;1.13;1.00;;;;;;;;;;5034067;28;20463;-78
2021/01/29 06:25:28;;;;;;;2.00;1.00;;;;;;;;;;5017936;28;20475;-76
2021/01/29 06:28:05;;;;;;;3.37;1.50;;;;;;;;;;5025088;28;20438;-78
2021/01/29 06:30:38;;;;;;;3.37;1.47;;;;;;;;;;5032083;28;20513;-78
2021/01/29 06:33:20;;;;;;;1.77;1.00;;;;;;;;;;5032170;28;20458;-77
2021/01/29 06:35:54;;;;;;;2.00;1.50;;;;;;;;;;5031492;28;20568;-77
2021/01/29 06:38:30;;;;;;;1.73;1.37;;;;;;;;;;5015136;28;20999;-77
2021/01/29 06:41:11;;;;;;;1.93;1.30;;;;;;;;;;5014890;28;20525;-77
2021/01/29 06:43:42;;;;;;;1.30;1.20;;;;;;;;;;5015216;28;20489;-75
2021/01/29 06:46:24;;;;;;;7.47;1.63;;;;;;;;;;4998341;28;20551;-78
2021/01/29 06:49:05;;;;;;;1.60;1.27;;;;;;;;;;5017662;28;20523;-78
2021/01/29 06:51:47;;;;;;;1.93;1.30;;;;;;;;;;5031359;28;20510;-78
2021/01/29 06:54:24;;;;;;;1.40;1.30;;;;;;;;;;5030590;28;20481;-78
2021/01/29 06:56:56;;;;;;;1.63;1.30;;;;;;;;;;5032155;28;20461;-75
2021/01/29 06:59:37;;;;;;;1.60;1.50;;;;;;;;;;5033335;28;20518;-77
2021/01/29 07:02:09;;;;;;;1.77;1.23;;;;;;;;;;5033566;28;20481;-77
2021/01/29 07:04:51;;;;;;;1.20;1.10;;;;;;;;;;5034283;28;20453;-78
2021/01/29 07:07:23;;;;;;;2.13;1.40;;;;;;;;;;5015594;28;20466;-76
2021/01/29 07:09:54;;;;;;;2.30;1.40;;;;;;;;;;5018039;28;22528;-78
2021/01/29 07:12:32;;;;;;;1.80;1.23;;;;;;;;;;5013036;28;20517;-76
2021/01/29 07:15:07;;;;;;;2.70;1.47;;;;;;;;;;5011868;28;20492;-76
2021/01/29 07:17:41;;;;;;;4.30;1.80;;;;;;;;;;5012038;28;20452;-76
2021/01/29 07:20:17;;;;;;;4.00;2.10;;;;;;;;;;5029030;28;20445;-78
2021/01/29 07:22:59;;;;;;;3.37;1.77;;;;;;;;;;4998605;28;20457;-77
2021/01/29 07:25:33;;;;;;;2.57;1.77;;;;;;;;;;5021394;28;20545;-76
2021/01/29 07:28:05;;;;;;;1.67;1.57;;;;;;;;;;5014091;28;20533;-76
2021/01/29 07:30:43;;;;;;;2.70;2.20;;;;;;;;;;5015003;28;20461;-76
2021/01/29 07:33:16;;;;;;;4.33;2.13;;;;;;;;;;5016672;28;20560;-77
2021/01/29 07:35:48;;;;;;;2.30;2.10;;;;;;;;;;5028569;28;21040;-76
2021/01/29 07:38:30;;;;;;;2.83;2.20;;;;;;;;;;5031190;28;20450;-76
2021/01/29 07:41:03;;;;;;;3.43;2.30;;;;;;;;;;5015679;28;20464;-77
2021/01/29 07:43:39;;;;;;;2.80;2.20;;;;;;;;;;5019482;28;20456;-79
2021/01/29 07:46:13;;;;;;;5.30;2.90;;;;;;;;;;5033731;28;20970;-80
2021/01/29 07:48:44;;;;;;;2.70;1.93;;;;;;;;;;5032396;28;20536;-79
2021/01/29 07:51:16;;;;;;;3.40;2.17;;;;;;;;;;5033760;28;21007;-78
2021/01/29 07:53:48;;;;;;;5.20;2.20;;;;;;;;;;5024443;28;20472;-77
2021/01/29 07:56:30;;;;;;;2.70;1.70;;;;;;;;;;5016319;28;20469;-78
2021/01/29 07:59:02;;;;;;;2.37;1.70;;;;;;;;;;5031071;28;20455;-77
2021/01/29 08:01:38;;;;;;;4.17;1.70;;;;;;;;;;5030977;28;20521;-76
2021/01/29 08:04:13;;;;;;;2.43;1.37;;;;;;;;;;5031639;28;20794;-78
2021/01/29 08:06:45;;;;;;;2.03;1.50;;;;;;;;;;5032000;28;20940;-77
2021/01/29 08:09:15;;;;;;;4.17;1.73;;;;;;;;;;5033630;28;20485;-77
2021/01/29 08:11:44;;;;;;;7.90;2.23;;;;;;;;;;5033537;28;20444;-77
2021/01/29 08:14:16;;;;;;;5.07;2.43;;;;;;;;;;5033457;28;20481;-77
2021/01/29 08:16:58;;;;;;;8.47;3.00;;;;;;;;;;5021060;28;20467;-77
2021/01/29 08:19:28;;;;;;;13.03;3.23;;;;;;;;;;5014346;28;20836;-78
2021/01/29 08:22:10;;;;;;;14.77;5.57;;;;;;;;;;5011565;28;20442;-77
2021/01/29 08:24:46;;;;;;;22.93;3.97;;;;;;;;;;5010500;28;20885;-78
2021/01/29 08:27:26;;;;;;;14.97;3.70;;;;;;;;;;5011403;28;20462;-77
2021/01/29 08:30:02;;;;;;;13.73;3.70;;;;;;;;;;5030568;28;20463;-77
2021/01/29 08:32:44;;;;;;;15.33;3.60;;;;;;;;;;5033481;28;20433;-77
2021/01/29 08:35:18;;;;;;;20.27;4.40;;;;;;;;;;5032490;28;20580;-77
2021/01/29 08:37:48;;;;;;;27.17;4.80;;;;;;;;;;5010232;28;20926;-76
2021/01/29 08:40:21;;;;;;;14.87;3.27;;;;;;;;;;5000115;28;20521;-77
2021/01/29 08:42:59;;;;;;;29.60;5.40;;;;;;;;;;5011300;28;20441;-76
2021/01/29 08:45:34;;;;;;;14.83;3.70;;;;;;;;;;5030853;28;20469;-77
2021/01/29 08:48:08;;;;;;;27.27;4.60;;;;;;;;;;5031028;28;20448;-78
2021/01/29 08:50:48;;;;;;;21.70;4.73;;;;;;;;;;5013137;28;20487;-77
2021/01/29 08:53:29;;;;;;;19.10;5.00;;;;;;;;;;5016664;28;20796;-77
2021/01/29 08:56:01;;;;;;;22.67;4.20;;;;;;;;;;5017504;28;20480;-78
2021/01/29 08:58:35;;;;;;;20.20;4.40;;;;;;;;;;5030974;28;20500;-77
2021/01/29 09:01:04;;;;;;;19.40;4.27;;;;;;;;;;5033660;28;20768;-76
2021/01/29 09:03:35;;;;;;;19.97;5.43;;;;;;;;;;5035538;28;20532;-79
2021/01/29 09:06:10;;;;;;;19.57;3.87;;;;;;;;;;5036265;28;20494;-77
2021/01/29 09:08:37;;;;;;;20.13;5.23;;;;;;;;;;5038298;28;20448;-77
2021/01/29 09:11:06;;;;;;;12.77;3.70;;;;;;;;;;5038414;28;20533;-78
2021/01/29 09:13:35;;;;;;;17.23;4.70;;;;;;;;;;5035167;28;20533;-77
2021/01/29 09:16:05;;;;;;;17.20;4.30;;;;;;;;;;5021319;28;20982;-77
2021/01/29 09:18:33;;;;;;;16.63;3.70;;;;;;;;;;5017311;28;20506;-77
2021/01/29 09:21:02;;;;;;;16.23;3.50;;;;;;;;;;4998195;28;20849;-78
2021/01/29 09:23:33;;;;;;;17.67;4.37;;;;;;;;;;4997271;28;20899;-78
2021/01/29 09:26:04;;;;;;;24.17;4.17;;;;;;;;;;5024451;28;20897;-77
2021/01/29 09:28:33;;;;;;;31.70;5.63;;;;;;;;;;5035968;28;20842;-78
2021/01/29 09:31:02;;;;;;;32.30;5.33;;;;;;;;;;5036351;28;21001;-76
2021/01/29 09:33:32;;;;;;;31.43;5.60;;;;;;;;;;5036087;28;20529;-75
2021/01/29 09:36:01;;;;;;;22.83;4.40;;;;;;;;;;5032475;28;20580;-76
2021/01/29 09:38:30;;;;;;;29.97;4.87;;;;;;;;;;5018971;28;20878;-78
2021/01/29 09:41:00;;;;;;;29.63;5.13;;;;;;;;;;5024273;28;20541;-78
2021/01/29 09:43:33;;;;;;;20.87;4.90;;;;;;;;;;5033597;28;20540;-76
2021/01/29 09:46:00;;;;;;;23.70;6.20;;;;;;;;;;5033031;28;20469;-77
2021/01/29 09:48:28;;;;;;;20.37;4.73;;;;;;;;;;5033209;28;20541;-78
2021/01/29 09:51:09;;;;;;;16.27;4.83;;;;;;;;;;5027822;28;20465;-76
2021/01/29 09:53:40;;;;;;;29.17;5.80;;;;;;;;;;5004510;28;20856;-77
2021/01/29 09:56:14;;;;;;;16.97;4.90;;;;;;;;;;4995740;28;20486;-77
2021/01/29 09:59:01;;;;;;;26.93;4.93;;;;;;;;;;5013451;28;20961;-77
2021/01/29 10:01:35;;;;;;;24.30;6.53;;;;;;;;;;4999297;28;20534;-76
2021/01/29 10:04:04;;;;;;;25.07;5.07;;;;;;;;;;5026495;28;20464;-77
2021/01/29 10:06:33;;;;;;;25.00;6.47;;;;;;;;;;5035316;28;20940;-77
2021/01/29 10:09:02;;;;;;;21.60;5.23;;;;;;;;;;5035708;28;20448;-77
2021/01/29 10:11:32;;;;;;;22.53;4.63;;;;;;;;;;5034915;28;20449;-76
2021/01/29 10:14:10;;;;;;;24.67;5.23;;;;;;;;;;5005586;28;20446;-78
2021/01/29 10:16:39;;;;;;;27.73;5.40;;;;;;;;;;4999742;28;20454;-78
2021/01/29 10:19:21;;;;;;;31.27;5.73;;;;;;;;;;5025479;28;20441;-76
2021/01/29 10:22:02;;;;;;;24.40;5.33;;;;;;;;;;5017144;28;20500;-77
2021/01/29 10:24:33;;;;;;;22.53;4.80;;;;;;;;;;5032147;28;20533;-77
2021/01/29 10:27:03;;;;;;;27.23;4.17;;;;;;;;;;5016936;28;20557;-76
2021/01/29 10:29:32;;;;;;;28.50;5.73;;;;;;;;;;5034936;28;20533;-77
2021/01/29 10:32:04;;;;;;;24.47;6.57;;;;;;;;;;5034846;28;20525;-77
2021/01/29 10:34:34;;;;;;;29.17;5.43;;;;;;;;;;5017179;28;21053;-79
2021/01/29 10:37:05;;;;;;;27.20;4.80;;;;;;;;;;5018573;28;20828;-80
2021/01/29 10:39:49;;;;;;;24.00;5.10;;;;;;;;;;5025508;28;20529;-78
2021/01/29 10:42:18;;;;;;;29.93;5.80;;;;;;;;;;5032096;28;20807;-77
2021/01/29 10:44:46;;;;;;;25.00;4.33;;;;;;;;;;5031689;28;20968;-77
2021/01/29 10:47:17;;;;;;;24.90;5.37;;;;;;;;;;5032489;28;21006;-78
2021/01/29 10:49:50;;;;;;;22.57;5.40;;;;;;;;;;5034360;28;20459;-77
2021/01/29 10:52:21;;;;;;;21.20;3.97;;;;;;;;;;5034422;28;20446;-77
2021/01/29 10:54:48;;;;;;;17.23;4.00;;;;;;;;;;5034884;28;20560;-77
2021/01/29 10:57:20;;;;;;;28.93;5.50;;;;;;;;;;5003576;28;20465;-77
2021/01/29 10:59:51;;;;;;;26.80;5.03;;;;;;;;;;5019112;28;20434;-78
2021/01/29 11:02:25;;;;;;;24.10;4.93;;;;;;;;;;5031565;28;20807;-77
2021/01/29 11:04:55;;;;;;;25.80;4.33;;;;;;;;;;5032272;28;20442;-77
2021/01/29 11:07:23;;;;;;;22.60;5.83;;;;;;;;;;5031862;28;20909;-77
2021/01/29 11:09:55;;;;;;;19.17;5.13;;;;;;;;;;5015918;28;20887;-77
2021/01/29 11:12:25;;;;;;;29.20;5.23;;;;;;;;;;5015103;28;20476;-75
2021/01/29 11:14:55;;;;;;;27.57;4.60;;;;;;;;;;5032092;28;20588;-75
2021/01/29 11:17:29;;;;;;;30.50;5.37;;;;;;;;;;5032196;28;20446;-77
2021/01/29 11:19:58;;;;;;;15.47;5.50;;;;;;;;;;5017897;28;20443;-78
2021/01/29 11:22:30;;;;;;;18.93;6.33;;;;;;;;;;5018917;28;20918;-78
2021/01/29 11:25:08;;;;;;;15.10;4.40;;;;;;;;;;5030336;28;20449;-80
2021/01/29 11:27:38;;;;;;;20.90;5.10;;;;;;;;;;5030939;28;20468;-77
2021/01/29 11:30:07;;;;;;;14.10;4.43;;;;;;;;;;5032092;28;20453;-77
2021/01/29 11:32:38;;;;;;;23.87;4.67;;;;;;;;;;5015157;28;20893;-79
2021/01/29 11:35:09;;;;;;;22.37;6.00;;;;;;;;;;5033712;28;20482;-78
2021/01/29 11:37:40;;;;;;;25.57;8.17;;;;;;;;;;5033962;28;20468;-78
2021/01/29 11:40:13;;;;;;;21.60;5.50;;;;;;;;;;5033648;28;20442;-77
2021/01/29 11:42:52;;;;;;;26.50;6.53;;;;;;;;;;5000408;28;20515;-80
2021/01/29 11:45:21;;;;;;;19.40;6.00;;;;;;;;;;5014813;28;20967;-78
2021/01/29 11:47:55;;;;;;;21.63;6.87;;;;;;;;;;5027162;28;20901;-79
2021/01/29 11:50:29;;;;;;;20.63;10.33;;;;;;;;;;5010396;28;20441;-79
2021/01/29 11:52:58;;;;;;;21.13;6.00;;;;;;;;;;5028281;28;20442;-80
2021/01/29 11:55:27;;;;;;;19.53;4.93;;;;;;;;;;5011889;28;20481;-78
2021/01/29 11:57:57;;;;;;;15.17;4.80;;;;;;;;;;5029326;28;20499;-76
2021/01/29 12:00:27;;;;;;;15.57;5.13;;;;;;;;;;5029907;28;20438;-78
2021/01/29 12:03:00;;;;;;;18.33;6.03;;;;;;;;;;5011070;28;20532;-77
2021/01/29 12:05:29;;;;;;;18.10;5.23;;;;;;;;;;5013773;28;20465;-77
2021/01/29 12:08:03;;;;;;;19.47;6.00;;;;;;;;;;5021463;28;20556;-80
2021/01/29 12:10:33;;;;;;;16.83;6.00;;;;;;;;;;5010384;28;20452;-77
2021/01/29 12:13:03;;;;;;;18.17;6.07;;;;;;;;;;5027529;28;20452;-77
2021/01/29 12:15:37;;;;;;;19.40;5.53;;;;;;;;;;5027981;28;20576;-80
2021/01/29 12:18:08;;;;;;;26.93;7.67;;;;;;;;;;5010042;28;20530;-76
2021/01/29 12:20:36;;;;;;;17.40;6.40;;;;;;;;;;5011969;28;20553;-77
2021/01/29 12:23:09;;;;;;;19.77;7.93;;;;;;;;;;5010772;28;20450;-77
2021/01/29 12:25:48;;;;;;;22.63;6.80;;;;;;;;;;5021525;28;20578;-79
2021/01/29 12:28:20;;;;;;;24.83;6.53;;;;;;;;;;5013873;28;20570;-76
2021/01/29 12:30:51;;;;;;;24.43;6.20;;;;;;;;;;5023861;28;20449;-77
2021/01/29 12:33:21;;;;;;;19.97;5.63;;;;;;;;;;5028101;28;20452;-77
2021/01/29 12:35:50;;;;;;;20.53;6.10;;;;;;;;;;5030246;28;20927;-77
2021/01/29 12:38:21;;;;;;;16.33;3.80;;;;;;;;;;5031767;28;20809;-79
2021/01/29 12:40:49;;;;;;;22.27;5.03;;;;;;;;;;5016083;28;20438;-78
2021/01/29 12:43:22;;;;;;;9.30;3.40;;;;;;;;;;5016591;28;20992;-77
2021/01/29 12:45:51;;;;;;;12.27;3.90;;;;;;;;;;5035272;28;20826;-76
2021/01/29 12:48:22;;;;;;;16.07;4.00;;;;;;;;;;5013346;28;20477;-76
2021/01/29 12:50:55;;;;;;;9.73;2.87;;;;;;;;;;5018847;28;20500;-77
2021/01/29 12:53:24;;;;;;;8.60;3.30;;;;;;;;;;5013159;28;20461;-77
2021/01/29 12:55:54;;;;;;;8.27;2.70;;;;;;;;;;5039784;28;20513;-75
2021/01/29 12:58:23;;;;;;;8.77;4.30;;;;;;;;;;5039984;28;20457;-79
2021/01/29 13:00:50;;;;;;;6.57;3.60;;;;;;;;;;5031748;28;20458;-76
2021/01/29 13:03:21;;;;;;;11.13;3.50;;;;;;;;;;5017958;28;20437;-76
2021/01/29 13:05:55;;;;;;;11.13;3.20;;;;;;;;;;5002105;28;20552;-77
2021/01/29 13:08:31;;;;;;;7.80;3.47;;;;;;;;;;5025957;28;20494;-76
2021/01/29 13:11:02;;;;;;;16.37;3.10;;;;;;;;;;5033645;28;20434;-77
2021/01/29 13:13:34;;;;;;;8.13;3.30;;;;;;;;;;5033545;28;20452;-77
2021/01/29 13:16:03;;;;;;;11.77;4.23;;;;;;;;;;5030461;28;20496;-77
2021/01/29 13:18:40;;;;;;;10.30;3.50;;;;;;;;;;5020809;28;20449;-76
2021/01/29 13:21:12;;;;;;;10.20;3.80;;;;;;;;;;5030718;28;20545;-76
2021/01/29 13:23:39;;;;;;;5.10;3.43;;;;;;;;;;5034185;28;20541;-77
2021/01/29 13:26:07;;;;;;;14.10;2.80;;;;;;;;;;5016246;28;20464;-75
2021/01/29 13:28:36;;;;;;;19.97;4.90;;;;;;;;;;5033848;28;21023;-77
2021/01/29 13:31:12;;;;;;;12.53;3.30;;;;;;;;;;5036276;28;20453;-77
2021/01/29 13:33:46;;;;;;;18.60;3.00;;;;;;;;;;5035682;28;21001;-78
2021/01/29 13:36:20;;;;;;;21.60;4.90;;;;;;;;;;5036134;28;20572;-76
2021/01/29 13:38:46;;;;;;;15.10;3.30;;;;;;;;;;5012011;28;20430;-76
2021/01/29 13:41:16;;;;;;;15.07;3.60;;;;;;;;;;5020053;28;21732;-74
2021/01/29 13:43:44;;;;;;;10.20;4.07;;;;;;;;;;5017532;28;20450;-77
2021/01/29 13:46:20;;;;;;;11.80;4.20;;;;;;;;;;5014795;28;20558;-77
2021/01/29 13:48:47;;;;;;;19.87;5.30;;;;;;;;;;5033507;28;20533;-76
2021/01/29 13:51:27;;;;;;;12.63;5.50;;;;;;;;;;5034176;28;20462;-76
2021/01/29 13:53:54;;;;;;;24.43;5.77;;;;;;;;;;5035727;28;20991;-77
2021/01/29 13:56:27;;;;;;;22.57;7.43;;;;;;;;;;5034972;28;20580;-77
2021/01/29 13:58:57;;;;;;;19.80;5.93;;;;;;;;;;5017056;28;20500;-77
2021/01/29 14:01:26;;;;;;;13.70;5.13;;;;;;;;;;5017534;28;20534;-77
2021/01/29 14:03:55;;;;;;;26.83;6.00;;;;;;;;;;5019269;28;20802;-77
2021/01/29 14:06:24;;;;;;;10.80;4.53;;;;;;;;;;5028557;28;20473;-75
2021/01/29 14:08:50;;;;;;;17.80;3.87;;;;;;;;;;5030294;28;20457;-76
2021/01/29 14:11:19;;;;;;;15.23;4.50;;;;;;;;;;5032830;28;21245;-78
2021/01/29 14:13:56;;;;;;;16.30;4.83;;;;;;;;;;5016500;28;20460;-77
2021/01/29 14:16:27;;;;;;;14.07;3.67;;;;;;;;;;5035271;28;20631;-76
2021/01/29 14:18:59;;;;;;;10.93;4.23;;;;;;;;;;5035205;28;20449;-77
2021/01/29 14:21:31;;;;;;;13.63;4.13;;;;;;;;;;5017625;28;20580;-77
2021/01/29 14:24:02;;;;;;;18.03;5.90;;;;;;;;;;5023641;28;20442;-76
2021/01/29 14:26:36;;;;;;;13.60;4.00;;;;;;;;;;5018273;28;20817;-77
2021/01/29 14:29:06;;;;;;;12.53;3.60;;;;;;;;;;5012699;28;20858;-79
2021/01/29 14:31:38;;;;;;;20.77;5.60;;;;;;;;;;5018476;28;20463;-76
2021/01/29 14:34:14;;;;;;;18.17;4.83;;;;;;;;;;5032991;28;20471;-77
2021/01/29 14:36:47;;;;;;;13.10;4.20;;;;;;;;;;5033797;28;20496;-77
2021/01/29 14:39:23;;;;;;;14.17;4.40;;;;;;;;;;5034508;28;20529;-76
2021/01/29 14:41:57;;;;;;;9.10;3.53;;;;;;;;;;5035133;28;20443;-76
2021/01/29 14:44:39;;;;;;;9.73;2.87;;;;;;;;;;5034854;28;20482;-76
2021/01/29 14:47:11;;;;;;;6.87;2.70;;;;;;;;;;5018912;28;20449;-76
2021/01/29 14:49:46;;;;;;;8.13;2.50;;;;;;;;;;5021866;28;20536;-76
2021/01/29 14:52:14;;;;;;;10.40;2.30;;;;;;;;;;5031259;28;20521;-77
2021/01/29 14:54:47;;;;;;;6.20;1.80;;;;;;;;;;5038403;28;20436;-77
2021/01/29 14:57:16;;;;;;;8.20;1.80;;;;;;;;;;5031771;28;20471;-75
2021/01/29 14:59:46;;;;;;;4.53;2.00;;;;;;;;;;5033658;28;20467;-77
2021/01/29 15:02:16;;;;;;;4.23;1.87;;;;;;;;;;5017223;28;20453;-76
2021/01/29 15:04:43;;;;;;;3.83;2.27;;;;;;;;;;5034266;28;20864;-78
2021/01/29 15:07:13;;;;;;;7.30;3.33;;;;;;;;;;5032704;28;20623;-77
2021/01/29 15:09:46;;;;;;;10.17;2.77;;;;;;;;;;5018317;28;20438;-77